Terminal Aerodrome Forecast
Issued by NWS

Home | Current Version | Previous Version | Graphics & Text | Print | Product List | Glossary On
Versions: 1 2 3 4 5 6 7 8 9 10 11 12 13 14 15 16 17 18 19 20 21
246
FTUS43 KGRB 240839 AAA
TAFAUW
TAF AMD
KAUW 240839Z 2409/2506 VRB03KT 6SM -RA BR SCT004 OVC030
      TEMPO 2409/2411 2SM -TSRA BR BKN007CB
     FM241100 05008KT 1 1/2SM RA BR OVC003
     FM242100 05008KT 2SM -SHRA BR OVC003
     FM250400 05009KT 4SM BR OVC007=

USA.gov is the U.S. government's official web portal to all federal, state and local government web resources and services.